Time;durP1;ratioP1;P1;durP2;ratioP2;P2;SDS_P1;SDS_P2;PMS_P1;PMS_P2;Temp;Humidity;BMP_temperature;BMP_pressure;BME280_temperature;BME280_humidity;BME280_pressure;Samples;Min_cycle;Max_cycle;Signal;HPM_P1;HPM_P2
2023/03/09 00:02:18;;;;;;;4.80;1.77;;;10.60;46.50;;;;;;5004162;28;20495;-68
2023/03/09 00:04:45;;;;;;;6.23;2.00;;;10.60;46.70;;;;;;5007000;28;21240;-68
2023/03/09 00:07:12;;;;;;;5.50;1.60;;;10.70;46.80;;;;;;5003721;28;20467;-68
2023/03/09 00:09:39;;;;;;;7.13;2.23;;;10.70;46.90;;;;;;5006213;28;20460;-68
2023/03/09 00:12:06;;;;;;;4.20;1.70;;;10.70;47.20;;;;;;4997082;28;20482;-67
2023/03/09 00:14:34;;;;;;;7.83;2.20;;;10.70;47.30;;;;;;5005574;28;20464;-68
2023/03/09 00:17:01;;;;;;;4.33;1.53;;;10.60;47.40;;;;;;5002351;28;20484;-68
2023/03/09 00:19:27;;;;;;;5.30;1.70;;;10.60;47.80;;;;;;5006562;28;20956;-68
2023/03/09 00:21:55;;;;;;;4.73;1.70;;;10.60;47.80;;;;;;5003243;28;20480;-68
2023/03/09 00:24:26;;;;;;;5.30;1.77;;;10.70;47.90;;;;;;5006290;28;20491;-68
2023/03/09 00:26:55;;;;;;;5.20;1.93;;;10.70;48.00;;;;;;5001828;28;20491;-68
2023/03/09 00:29:23;;;;;;;6.13;1.77;;;10.70;48.10;;;;;;5002007;28;20461;-67
2023/03/09 00:31:51;;;;;;;5.37;1.90;;;10.70;47.90;;;;;;5002368;28;20475;-68
2023/03/09 00:34:18;;;;;;;4.87;1.53;;;10.80;47.90;;;;;;5004868;28;20460;-68
2023/03/09 00:36:45;;;;;;;4.10;1.47;;;10.80;47.70;;;;;;5005172;28;20485;-68
2023/03/09 00:39:14;;;;;;;4.60;1.60;;;10.80;47.60;;;;;;5003269;28;20464;-68
2023/03/09 00:41:41;;;;;;;4.90;2.00;;;10.80;47.80;;;;;;5004934;28;20483;-68
2023/03/09 00:44:08;;;;;;;4.83;1.30;;;10.80;47.70;;;;;;5006057;28;20460;-68
2023/03/09 00:46:36;;;;;;;4.40;1.67;;;10.80;47.70;;;;;;5003238;28;21145;-68
2023/03/09 00:49:06;;;;;;;4.03;1.33;;;10.70;47.80;;;;;;5000880;28;20495;-68
2023/03/09 00:51:33;;;;;;;4.83;1.73;;;10.80;47.50;;;;;;5004280;28;20894;-68
2023/03/09 00:54:00;;;;;;;5.53;1.47;;;10.80;47.40;;;;;;5001751;28;21164;-68
2023/03/09 00:56:29;;;;;;;5.10;1.70;;;10.80;47.40;;;;;;5003750;28;20970;-68
2023/03/09 00:58:56;;;;;;;4.37;1.60;;;10.80;47.30;;;;;;5001581;28;20535;-68
2023/03/09 01:01:24;;;;;;;4.50;1.70;;;10.80;47.10;;;;;;5004709;28;20467;-68
2023/03/09 01:03:52;;;;;;;5.27;1.60;;;10.80;47.00;;;;;;5002620;28;20460;-68
2023/03/09 01:06:21;;;;;;;4.23;1.40;;;10.80;46.90;;;;;;5002977;28;20480;-68
2023/03/09 01:08:47;;;;;;;6.30;1.50;;;10.90;46.90;;;;;;5005166;28;20452;-68
2023/03/09 01:11:16;;;;;;;6.03;1.50;;;10.90;46.80;;;;;;5006453;28;20447;-68
2023/03/09 01:13:43;;;;;;;4.60;1.33;;;10.90;46.60;;;;;;5004055;28;20474;-68
2023/03/09 01:16:10;;;;;;;4.07;1.20;;;10.90;46.80;;;;;;5005256;28;20487;-68
2023/03/09 01:18:36;;;;;;;4.73;1.13;;;11.00;46.60;;;;;;5000748;28;20460;-68
2023/03/09 01:21:04;;;;;;;4.27;1.27;;;11.00;46.40;;;;;;5003756;28;20456;-68
2023/03/09 01:23:32;;;;;;;4.40;1.20;;;11.00;46.10;;;;;;4999740;28;20465;-68
2023/03/09 01:25:59;;;;;;;4.70;1.20;;;11.00;46.20;;;;;;5004631;28;20484;-69
2023/03/09 01:28:26;;;;;;;3.83;0.87;;;11.00;46.00;;;;;;5005057;28;20909;-68
2023/03/09 01:30:52;;;;;;;4.30;1.03;;;11.00;45.80;;;;;;5004828;28;20467;-68
2023/03/09 01:33:19;;;;;;;4.87;0.93;;;11.00;45.90;;;;;;5005195;28;20456;-68
2023/03/09 01:35:46;;;;;;;4.10;1.10;;;10.90;45.80;;;;;;5001506;28;20500;-68
2023/03/09 01:38:13;;;;;;;4.00;0.90;;;11.00;45.90;;;;;;5004645;28;20885;-68
2023/03/09 01:40:46;;;;;;;4.53;1.37;;;11.00;46.20;;;;;;5002214;28;20464;-68
2023/03/09 01:43:29;;;;;;;4.37;1.07;;;11.00;46.20;;;;;;5005195;28;20515;-68
2023/03/09 01:46:29;;;;;;;4.80;1.33;;;10.90;46.70;;;;;;5001036;28;20933;-68
2023/03/09 01:49:01;;;;;;;5.20;1.20;;;10.90;47.40;;;;;;5005862;28;20468;-68
2023/03/09 01:51:33;;;;;;;5.70;0.80;;;10.90;45.20;;;;;;5004197;28;20458;-68
2023/03/09 01:54:03;;;;;;;4.00;0.70;;;10.90;43.90;;;;;;5002171;28;20472;-68
2023/03/09 01:56:32;;;;;;;5.40;0.93;;;10.80;43.40;;;;;;5003737;28;22990;-68
2023/03/09 01:59:01;;;;;;;4.93;1.07;;;10.80;43.70;;;;;;5001610;28;20466;-68
2023/03/09 02:01:28;;;;;;;3.80;0.87;;;10.70;43.60;;;;;;5007729;28;20479;-68
2023/03/09 02:04:01;;;;;;;5.17;1.00;;;10.80;43.70;;;;;;5008172;28;20464;-68
2023/03/09 02:06:28;;;;;;;3.60;0.80;;;10.70;43.80;;;;;;5004609;28;20494;-68
2023/03/09 02:09:01;;;;;;;3.97;0.63;;;10.70;43.80;;;;;;5006845;28;20463;-68
2023/03/09 02:11:28;;;;;;;3.40;0.50;;;10.70;43.70;;;;;;4998829;28;20448;-68
2023/03/09 02:13:56;;;;;;;5.10;0.87;;;10.70;43.10;;;;;;5008237;28;20492;-68
2023/03/09 02:16:23;;;;;;;3.63;0.60;;;10.60;42.20;;;;;;5003908;28;20483;-68
2023/03/09 02:18:50;;;;;;;3.50;0.53;;;10.50;42.30;;;;;;5007754;28;20479;-68
2023/03/09 02:21:25;;;;;;;3.80;0.40;;;10.50;42.20;;;;;;5006484;28;20836;-68
2023/03/09 02:23:59;;;;;;;3.80;0.50;;;10.40;41.70;;;;;;5007927;28;20467;-68
2023/03/09 02:26:32;;;;;;;3.30;0.50;;;10.30;41.50;;;;;;5007522;28;20483;-68
2023/03/09 02:29:00;;;;;;;3.53;0.47;;;10.30;41.40;;;;;;4999297;28;20464;-68
2023/03/09 02:31:27;;;;;;;4.33;0.50;;;10.30;41.20;;;;;;5007135;28;20837;-68
2023/03/09 02:33:54;;;;;;;3.70;0.60;;;10.20;40.40;;;;;;5007065;28;20472;-68
2023/03/09 02:36:21;;;;;;;3.60;0.53;;;10.30;40.50;;;;;;5004471;28;20480;-68
2023/03/09 02:38:47;;;;;;;3.73;0.50;;;10.20;40.20;;;;;;5002218;28;20549;-69
2023/03/09 02:41:14;;;;;;;3.20;0.30;;;10.20;40.00;;;;;;5007272;28;20465;-68
2023/03/09 02:43:46;;;;;;;3.83;0.40;;;10.20;39.70;;;;;;5004671;28;20455;-68
2023/03/09 02:46:14;;;;;;;3.40;0.40;;;10.20;39.90;;;;;;5001369;28;20859;-68
2023/03/09 02:48:41;;;;;;;3.90;0.40;;;10.10;39.90;;;;;;4998285;28;20846;-68
2023/03/09 02:51:08;;;;;;;3.50;0.47;;;10.10;39.70;;;;;;5007626;28;20463;-68
2023/03/09 02:53:35;;;;;;;3.73;0.60;;;10.10;39.90;;;;;;5007324;28;20464;-68
2023/03/09 02:56:02;;;;;;;5.10;1.00;;;10.10;40.30;;;;;;5007956;28;20517;-68
2023/03/09 02:58:29;;;;;;;4.47;0.50;;;10.20;40.80;;;;;;5004712;28;20468;-68
2023/03/09 03:00:56;;;;;;;3.90;0.60;;;10.10;40.50;;;;;;5007817;28;20495;-68
2023/03/09 03:03:24;;;;;;;3.90;0.70;;;10.10;40.60;;;;;;5004280;28;20494;-68
2023/03/09 03:05:51;;;;;;;4.33;0.70;;;10.10;41.40;;;;;;5001801;28;20486;-68
2023/03/09 03:08:18;;;;;;;3.90;0.87;;;10.00;42.20;;;;;;5006714;28;20948;-68
2023/03/09 03:10:45;;;;;;;3.93;0.60;;;10.00;42.50;;;;;;5001571;28;20857;-68
2023/03/09 03:13:11;;;;;;;4.13;0.50;;;9.90;42.90;;;;;;5007250;28;20452;-68
2023/03/09 03:15:38;;;;;;;3.23;0.40;;;9.80;43.00;;;;;;5007295;28;20487;-68
2023/03/09 03:18:05;;;;;;;3.50;0.40;;;9.70;42.80;;;;;;5007159;28;20467;-68
2023/03/09 03:20:33;;;;;;;3.77;0.60;;;9.60;42.80;;;;;;5003091;28;20455;-68
2023/03/09 03:23:00;;;;;;;4.47;0.60;;;9.60;43.30;;;;;;5006284;28;20482;-68
2023/03/09 03:25:27;;;;;;;3.97;0.50;;;9.60;43.30;;;;;;5002822;28;20491;-68
2023/03/09 03:27:53;;;;;;;3.50;0.50;;;9.50;43.70;;;;;;5006605;28;20833;-68
2023/03/09 03:30:20;;;;;;;3.53;0.50;;;9.50;43.60;;;;;;4992795;28;20465;-68
2023/03/09 03:32:52;;;;;;;3.60;0.50;;;9.50;43.70;;;;;;5003055;28;20967;-68
2023/03/09 03:35:19;;;;;;;3.40;0.50;;;9.40;43.70;;;;;;4997666;28;21133;-68
2023/03/09 03:37:47;;;;;;;3.33;0.50;;;9.40;43.80;;;;;;5003183;28;21299;-68
2023/03/09 03:40:14;;;;;;;6.43;1.00;;;9.40;44.60;;;;;;5004008;28;20978;-68
2023/03/09 03:42:41;;;;;;;3.83;1.03;;;9.40;44.30;;;;;;5007074;28;20476;-68
2023/03/09 03:45:08;;;;;;;5.93;0.80;;;9.40;44.50;;;;;;5002820;28;20490;-68
2023/03/09 03:47:35;;;;;;;4.10;1.00;;;9.40;44.90;;;;;;5004879;28;20471;-67
2023/03/09 03:50:02;;;;;;;4.37;1.03;;;9.30;45.30;;;;;;5005237;28;20467;-67
2023/03/09 03:52:28;;;;;;;4.40;0.73;;;9.40;45.50;;;;;;5005780;28;20464;-67
2023/03/09 03:54:56;;;;;;;3.83;0.70;;;9.40;45.70;;;;;;5006571;28;20463;-68
2023/03/09 03:57:23;;;;;;;4.10;0.80;;;9.40;45.80;;;;;;5000971;28;20467;-67
2023/03/09 03:59:50;;;;;;;6.43;0.90;;;9.40;45.90;;;;;;5003145;28;21082;-68
2023/03/09 04:02:17;;;;;;;4.10;1.00;;;9.40;46.10;;;;;;5003195;28;20476;-68
2023/03/09 04:04:43;;;;;;;5.40;0.90;;;9.50;46.50;;;;;;5006612;28;20460;-68
2023/03/09 04:07:10;;;;;;;5.50;0.80;;;9.50;46.70;;;;;;5004138;28;20595;-68
2023/03/09 04:09:37;;;;;;;6.67;1.10;;;9.50;46.80;;;;;;5004375;28;20981;-68
2023/03/09 04:12:06;;;;;;;4.00;0.90;;;9.50;47.00;;;;;;4998954;28;20456;-67
2023/03/09 04:14:33;;;;;;;8.37;1.97;;;9.50;47.30;;;;;;4999809;28;20466;-68
2023/03/09 04:16:59;;;;;;;5.50;1.03;;;9.50;47.90;;;;;;5005627;28;21014;-68
2023/03/09 04:19:26;;;;;;;4.57;1.00;;;9.60;48.10;;;;;;5008335;28;20482;-68
2023/03/09 04:21:53;;;;;;;7.60;1.30;;;9.60;48.20;;;;;;5003463;28;20456;-68
2023/03/09 04:24:19;;;;;;;4.57;1.03;;;9.60;48.20;;;;;;5005007;28;20468;-67
2023/03/09 04:26:46;;;;;;;6.70;1.20;;;9.70;48.40;;;;;;5002367;28;20495;-67
2023/03/09 04:29:14;;;;;;;6.07;1.23;;;9.70;48.50;;;;;;5000391;28;20467;-67
2023/03/09 04:31:41;;;;;;;6.30;1.33;;;9.70;48.40;;;;;;5002437;28;20480;-68
2023/03/09 04:34:09;;;;;;;6.60;1.30;;;9.70;48.50;;;;;;5002306;28;20691;-68
2023/03/09 04:36:35;;;;;;;5.43;1.37;;;9.80;48.50;;;;;;5001730;28;20483;-68
2023/03/09 04:39:03;;;;;;;8.27;1.60;;;9.80;48.40;;;;;;5006154;28;20857;-68
2023/03/09 04:41:30;;;;;;;8.07;1.43;;;9.80;48.50;;;;;;5001753;28;20468;-68
2023/03/09 04:43:56;;;;;;;5.73;1.80;;;9.80;48.50;;;;;;4999669;28;20492;-67
2023/03/09 04:46:24;;;;;;;6.00;1.30;;;9.80;48.50;;;;;;5002499;28;20999;-67
2023/03/09 04:48:51;;;;;;;4.33;1.00;;;9.90;48.70;;;;;;5001355;28;20869;-67
2023/03/09 04:51:18;;;;;;;4.90;1.13;;;9.90;48.50;;;;;;5002148;28;20479;-67
2023/03/09 04:53:45;;;;;;;5.50;1.33;;;9.90;47.50;;;;;;5000285;28;20487;-67
2023/03/09 04:56:11;;;;;;;5.80;1.27;;;9.90;47.60;;;;;;5003796;28;20487;-67
2023/03/09 04:58:38;;;;;;;6.63;0.90;;;9.90;47.70;;;;;;5004835;28;20684;-67
2023/03/09 05:01:05;;;;;;;7.60;1.10;;;9.90;47.40;;;;;;4997021;28;20471;-67
2023/03/09 05:03:33;;;;;;;4.03;1.00;;;9.90;46.80;;;;;;5005092;28;20507;-67
2023/03/09 05:06:00;;;;;;;3.70;0.60;;;9.90;46.40;;;;;;5004570;28;20487;-67
2023/03/09 05:08:27;;;;;;;4.60;0.80;;;9.90;46.10;;;;;;5006176;28;20807;-67
2023/03/09 05:10:53;;;;;;;4.67;0.77;;;9.80;45.90;;;;;;4998964;28;20479;-68
2023/03/09 05:13:21;;;;;;;4.50;0.67;;;9.80;45.60;;;;;;5003861;28;20482;-66
2023/03/09 05:15:48;;;;;;;5.83;0.90;;;9.80;44.80;;;;;;5000242;28;20483;-69
2023/03/09 05:18:14;;;;;;;4.67;1.20;;;9.80;44.50;;;;;;5004715;28;20455;-69
2023/03/09 05:20:43;;;;;;;4.97;1.43;;;9.70;43.70;;;;;;5004139;28;21026;-69
2023/03/09 05:23:09;;;;;;;4.20;0.90;;;9.70;43.00;;;;;;5001099;28;20917;-69
2023/03/09 05:25:36;;;;;;;4.50;1.43;;;9.70;43.00;;;;;;5000838;28;20530;-68
2023/03/09 05:28:04;;;;;;;6.43;1.50;;;9.60;42.80;;;;;;5005251;28;20470;-69
2023/03/09 05:30:32;;;;;;;4.53;1.00;;;9.60;42.60;;;;;;5005109;28;20468;-69
2023/03/09 05:32:58;;;;;;;5.93;1.30;;;9.60;42.50;;;;;;5002657;28;20456;-70
2023/03/09 05:35:25;;;;;;;6.40;1.60;;;9.50;42.40;;;;;;5001089;28;20499;-76
2023/03/09 05:37:53;;;;;;;5.50;1.27;;;9.50;42.30;;;;;;4994592;28;20498;-71
2023/03/09 05:40:22;;;;;;;5.90;1.40;;;9.50;42.30;;;;;;5003165;28;20471;-70
2023/03/09 05:42:49;;;;;;;8.33;1.53;;;9.50;42.30;;;;;;5001425;28;20570;-67
2023/03/09 05:45:16;;;;;;;7.43;1.43;;;9.50;41.90;;;;;;4998799;28;20484;-68
2023/03/09 05:47:43;;;;;;;11.00;1.57;;;9.50;41.80;;;;;;4998500;28;20476;-69
2023/03/09 05:50:11;;;;;;;12.40;1.70;;;9.50;41.30;;;;;;5001519;28;20460;-69
2023/03/09 05:52:37;;;;;;;6.93;2.00;;;9.50;41.10;;;;;;5002810;28;20463;-67
2023/03/09 05:55:06;;;;;;;8.83;2.40;;;9.50;40.80;;;;;;5001408;28;20467;-66
2023/03/09 05:57:33;;;;;;;6.23;1.43;;;9.50;40.90;;;;;;5006675;28;21188;-66
2023/03/09 05:59:59;;;;;;;11.97;1.97;;;9.50;41.00;;;;;;5003644;28;20620;-66
2023/03/09 06:02:26;;;;;;;8.23;1.47;;;9.40;41.10;;;;;;4999173;28;21011;-66
2023/03/09 06:04:53;;;;;;;5.10;1.60;;;9.40;41.20;;;;;;5004186;28;20472;-66
2023/03/09 06:07:20;;;;;;;6.50;1.30;;;9.50;41.30;;;;;;5002758;28;20468;-66
2023/03/09 06:09:47;;;;;;;6.63;1.33;;;9.50;41.00;;;;;;5004191;28;20474;-66
2023/03/09 06:12:17;;;;;;;9.23;1.90;;;9.50;40.90;;;;;;4999304;28;20456;-66
2023/03/09 06:14:44;;;;;;;8.70;1.87;;;9.50;41.10;;;;;;4997419;28;20460;-65
2023/03/09 06:17:11;;;;;;;7.77;1.60;;;9.50;41.10;;;;;;4995183;28;20558;-66
2023/03/09 06:19:38;;;;;;;8.63;1.43;;;9.50;41.40;;;;;;5006505;28;20463;-66
2023/03/09 06:22:04;;;;;;;7.40;1.10;;;9.60;41.40;;;;;;4999295;28;20481;-66
2023/03/09 06:24:31;;;;;;;7.10;1.70;;;9.60;41.60;;;;;;4997701;28;20502;-66
2023/03/09 06:26:58;;;;;;;6.63;1.60;;;9.50;41.90;;;;;;5000289;28;20484;-65
2023/03/09 06:29:27;;;;;;;5.80;1.30;;;9.50;42.10;;;;;;4998181;28;20469;-67
2023/03/09 06:31:54;;;;;;;3.80;0.90;;;9.60;42.60;;;;;;5003376;28;20480;-65
2023/03/09 06:34:21;;;;;;;5.60;1.00;;;9.50;43.00;;;;;;4998875;28;20471;-64
2023/03/09 06:36:48;;;;;;;7.20;1.00;;;9.60;43.10;;;;;;5000584;28;20484;-65
2023/03/09 06:39:14;;;;;;;5.37;1.27;;;9.60;43.30;;;;;;5002182;28;20460;-64
2023/03/09 06:41:41;;;;;;;3.90;0.77;;;9.60;43.40;;;;;;5005757;28;20543;-64
2023/03/09 06:44:09;;;;;;;4.00;0.80;;;9.70;43.30;;;;;;4998641;28;20488;-65
2023/03/09 06:46:37;;;;;;;3.57;0.63;;;9.70;43.30;;;;;;5000816;28;20488;-67
2023/03/09 06:49:03;;;;;;;5.60;0.93;;;9.70;43.10;;;;;;5001030;28;20471;-66
2023/03/09 06:51:30;;;;;;;4.37;0.70;;;9.80;43.00;;;;;;5001775;28;20491;-62
2023/03/09 06:53:57;;;;;;;4.10;0.90;;;9.90;43.00;;;;;;5002262;28;20464;-65
2023/03/09 06:56:24;;;;;;;5.30;0.70;;;10.00;42.90;;;;;;4996927;28;20546;-62
2023/03/09 06:58:53;;;;;;;4.17;0.73;;;10.40;43.10;;;;;;4999459;28;20470;-63
2023/03/09 07:01:20;;;;;;;3.70;0.70;;;11.00;41.60;;;;;;5001257;28;20491;-62
2023/03/09 07:03:48;;;;;;;4.23;0.77;;;11.40;39.00;;;;;;5000941;28;20488;-61
2023/03/09 07:06:15;;;;;;;4.00;0.60;;;11.50;37.50;;;;;;5004997;28;20503;-62
2023/03/09 07:08:42;;;;;;;4.63;0.70;;;11.80;36.30;;;;;;5003278;28;20471;-64
2023/03/09 07:13:42;;;;;;;4.20;0.80;;;12.00;34.60;;;;;;4958394;28;21064;-63
2023/03/09 07:16:09;;;;;;;5.40;0.80;;;12.10;33.80;;;;;;4973218;28;20461;-63
2023/03/09 07:18:35;;;;;;;3.50;0.63;;;12.10;33.60;;;;;;4982274;28;21097;-63
2023/03/09 07:21:04;;;;;;;3.73;0.73;;;12.20;33.20;;;;;;4979655;28;20684;-62
2023/03/09 07:26:07;;;;;;;4.10;0.60;;;12.10;33.20;;;;;;5185071;22;21177;-68
2023/03/09 07:28:34;;;;;;;4.90;0.60;;;12.20;33.10;;;;;;4997243;28;20461;-66
2023/03/09 07:31:07;;;;;;;4.30;0.80;;;12.40;32.70;;;;;;5010858;28;20481;-66
2023/03/09 07:33:34;;;;;;;3.77;0.70;;;12.80;31.90;;;;;;4992307;28;20481;-66
2023/03/09 07:36:04;;;;;;;4.27;0.60;;;13.30;30.80;;;;;;4995234;28;20462;-67
2023/03/09 07:38:31;;;;;;;4.47;0.73;;;13.40;29.50;;;;;;5002679;28;20467;-67
2023/03/09 07:40:58;;;;;;;4.37;0.87;;;13.30;29.20;;;;;;4989597;28;20468;-67
2023/03/09 07:43:25;;;;;;;5.60;0.80;;;13.20;28.70;;;;;;5001206;28;20498;-66
2023/03/09 07:45:52;;;;;;;5.53;0.73;;;13.00;28.90;;;;;;5000947;28;21424;-66
2023/03/09 07:48:19;;;;;;;4.27;0.60;;;12.90;29.20;;;;;;4999703;28;20475;-67
2023/03/09 07:50:46;;;;;;;4.00;0.80;;;12.70;29.50;;;;;;4999584;28;20477;-67
2023/03/09 07:53:14;;;;;;;4.07;0.63;;;12.50;30.00;;;;;;4994337;28;21027;-64
2023/03/09 07:55:41;;;;;;;4.07;0.80;;;12.40;30.60;;;;;;4993480;28;20544;-70
2023/03/09 07:58:08;;;;;;;5.40;1.40;;;12.20;31.40;;;;;;5001063;28;20482;-70
2023/03/09 08:00:35;;;;;;;5.13;0.60;;;12.00;31.80;;;;;;4990827;28;20970;-70
2023/03/09 08:03:03;;;;;;;5.07;0.90;;;11.90;32.20;;;;;;4986402;28;20480;-69
2023/03/09 08:05:30;;;;;;;4.80;0.80;;;11.80;32.60;;;;;;5018761;22;20494;-63
2023/03/09 08:07:56;;;;;;;3.57;0.60;;;11.80;33.00;;;;;;5017304;28;20466;-63
2023/03/09 08:10:24;;;;;;;3.80;0.77;;;11.80;33.20;;;;;;5014904;28;20466;-63
2023/03/09 08:12:51;;;;;;;5.63;1.30;;;11.90;33.20;;;;;;5018110;28;20542;-62
2023/03/09 08:15:22;;;;;;;5.30;0.90;;;12.00;32.50;;;;;;5013835;28;20488;-64
2023/03/09 08:17:49;;;;;;;5.20;0.70;;;12.00;32.40;;;;;;5013686;28;20460;-61
2023/03/09 08:20:16;;;;;;;4.80;0.93;;;12.10;31.70;;;;;;5002639;28;20467;-61
2023/03/09 08:22:43;;;;;;;6.43;1.07;;;12.10;31.70;;;;;;5002692;28;20464;-64
2023/03/09 08:25:10;;;;;;;5.40;1.17;;;12.20;31.90;;;;;;5002568;28;20491;-62
2023/03/09 08:27:43;;;;;;;6.13;0.80;;;12.40;31.30;;;;;;4996938;28;20843;-61
2023/03/09 08:30:12;;;;;;;5.23;0.83;;;13.20;30.70;;;;;;4999397;28;20471;-62
2023/03/09 08:32:39;;;;;;;6.03;0.80;;;14.20;26.70;;;;;;5001882;28;21221;-63
2023/03/09 08:35:06;;;;;;;6.90;1.00;;;14.50;24.00;;;;;;5002413;28;20582;-61
2023/03/09 08:37:33;;;;;;;6.60;1.17;;;14.90;22.90;;;;;;4997622;28;20996;-63
2023/03/09 08:40:00;;;;;;;5.90;1.00;;;16.10;20.70;;;;;;4999989;28;20459;-64
2023/03/09 08:42:27;;;;;;;5.10;1.40;;;17.70;15.90;;;;;;5003871;28;20845;-62
2023/03/09 08:44:55;;;;;;;5.90;1.13;;;18.40;15.10;;;;;;4999556;28;20487;-63
2023/03/09 08:47:22;;;;;;;6.33;1.10;;;18.80;11.90;;;;;;5004957;28;20460;-62
2023/03/09 08:49:49;;;;;;;6.23;1.00;;;19.20;11.60;;;;;;5001851;28;20818;-62
2023/03/09 08:52:16;;;;;;;4.90;1.10;;;20.90;10.40;;;;;;5004749;28;20461;-61
2023/03/09 08:54:42;;;;;;;5.50;1.13;;;23.50;5.30;;;;;;5002240;28;20563;-63
2023/03/09 08:57:09;;;;;;;7.50;1.50;;;24.70;1.80;;;;;;4997876;28;20834;-60
2023/03/09 08:59:36;;;;;;;5.57;1.17;;;24.10;1.60;;;;;;5000905;28;20460;-63
2023/03/09 09:02:05;;;;;;;4.83;0.80;;;25.20;1.00;;;;;;4996473;28;20853;-61
2023/03/09 09:04:32;;;;;;;7.70;2.07;;;27.00;1.00;;;;;;5003535;28;20483;-62
2023/03/09 09:06:59;;;;;;;4.13;0.97;;;28.50;1.00;;;;;;4999430;28;20468;-61
2023/03/09 09:09:25;;;;;;;4.20;0.80;;;29.90;1.00;;;;;;5005355;28;20459;-61
2023/03/09 09:11:52;;;;;;;5.40;1.10;;;30.70;1.00;;;;;;5004994;28;20475;-62
2023/03/09 09:14:19;;;;;;;6.00;1.10;;;31.50;1.00;;;;;;5007864;28;20473;-61
2023/03/09 09:16:46;;;;;;;4.80;1.13;;;32.30;1.00;;;;;;5005011;28;20470;-60
2023/03/09 09:19:14;;;;;;;5.60;1.10;;;32.50;1.00;;;;;;5008148;28;20470;-61
2023/03/09 09:21:40;;;;;;;5.60;1.30;;;32.90;1.00;;;;;;5006463;28;20467;-62
2023/03/09 09:24:07;;;;;;;4.37;0.97;;;33.60;1.00;;;;;;5000980;28;20487;-63
2023/03/09 09:26:34;;;;;;;7.53;1.23;;;34.10;1.00;;;;;;5004638;28;20482;-64
2023/03/09 09:29:01;;;;;;;3.70;0.77;;;34.50;1.00;;;;;;5006097;28;20467;-65
2023/03/09 09:31:29;;;;;;;4.97;1.23;;;34.20;1.00;;;;;;5006933;28;20573;-62
2023/03/09 09:33:56;;;;;;;5.63;1.40;;;34.50;1.00;;;;;;5002806;28;20456;-62
2023/03/09 09:36:24;;;;;;;4.97;1.17;;;35.00;1.00;;;;;;5001155;28;20479;-65
2023/03/09 09:38:53;;;;;;;4.50;1.10;;;35.30;1.00;;;;;;5004489;28;20815;-63
2023/03/09 09:41:24;;;;;;;5.53;1.13;;;35.50;1.00;;;;;;5011209;28;20460;-64
2023/03/09 09:43:57;;;;;;;5.20;1.30;;;35.50;1.00;;;;;;5001618;28;20483;-65
2023/03/09 09:46:24;;;;;;;4.73;1.13;;;35.50;1.00;;;;;;5003203;28;20558;-65
2023/03/09 09:48:51;;;;;;;4.03;1.10;;;36.00;1.00;;;;;;5001909;28;20468;-64
2023/03/09 09:51:44;;;;;;;4.93;1.33;;;35.90;1.00;;;;;;5003265;28;20461;-62
2023/03/09 09:54:22;;;;;;;4.63;1.33;;;36.00;1.00;;;;;;5001936;28;20456;-62
2023/03/09 09:56:51;;;;;;;4.73;1.20;;;35.00;1.00;;;;;;5006740;28;20456;-61
2023/03/09 09:59:24;;;;;;;4.37;0.83;;;34.00;1.00;;;;;;5005705;28;20467;-62
2023/03/09 10:01:57;;;;;;;5.10;1.43;;;32.40;1.00;;;;;;5002495;28;20479;-63
2023/03/09 10:04:30;;;;;;;4.57;1.00;;;30.80;1.00;;;;;;5008259;28;20483;-63
2023/03/09 10:07:01;;;;;;;4.20;1.00;;;30.00;1.00;;;;;;5001779;28;20465;-64
2023/03/09 10:09:31;;;;;;;4.90;1.00;;;27.90;1.00;;;;;;5000447;28;20463;-64
2023/03/09 10:12:02;;;;;;;6.00;1.53;;;26.00;1.00;;;;;;5003609;28;20471;-63
2023/03/09 10:14:32;;;;;;;5.73;0.83;;;24.50;1.00;;;;;;4997655;28;20460;-63
2023/03/09 10:17:03;;;;;;;9.83;1.50;;;23.30;1.00;;;;;;4998294;28;20970;-65
2023/03/09 10:19:33;;;;;;;5.30;0.80;;;22.20;1.00;;;;;;5000655;28;20567;-63
2023/03/09 10:22:03;;;;;;;4.00;0.70;;;21.80;1.30;;;;;;4999087;28;20475;-62
2023/03/09 10:24:33;;;;;;;5.50;1.30;;;22.30;1.50;;;;;;4994619;28;20511;-63
2023/03/09 10:27:05;;;;;;;6.73;1.10;;;22.20;1.00;;;;;;4993210;28;20465;-66
2023/03/09 10:29:48;;;;;;;5.07;0.90;;;21.40;1.60;;;;;;4999950;28;20466;-65
2023/03/09 10:32:21;;;;;;;3.77;0.70;;;21.20;1.70;;;;;;4999312;28;20903;-65
2023/03/09 10:34:56;;;;;;;4.73;1.00;;;22.00;1.50;;;;;;4993195;28;21219;-64
2023/03/09 10:37:28;;;;;;;5.07;0.77;;;22.40;1.00;;;;;;4997868;28;20468;-64
2023/03/09 10:39:55;;;;;;;3.90;0.80;;;22.90;1.00;;;;;;4992581;28;20539;-64
2023/03/09 10:42:25;;;;;;;3.70;0.70;;;23.50;1.00;;;;;;5000576;28;20456;-63
2023/03/09 10:45:15;;;;;;;4.20;0.67;;;23.10;1.00;;;;;;5005017;28;20484;-63
2023/03/09 10:47:56;;;;;;;5.90;0.77;;;22.10;1.00;;;;;;5002065;28;20470;-66
2023/03/09 10:50:25;;;;;;;7.63;1.73;;;21.70;1.30;;;;;;4996041;28;20475;-62
2023/03/09 10:52:54;;;;;;;5.07;0.67;;;21.60;1.60;;;;;;5003739;28;20471;-61
2023/03/09 10:55:37;;;;;;;5.00;0.63;;;21.50;1.00;;;;;;5001756;28;20760;-61
2023/03/09 10:58:14;;;;;;;4.30;0.70;;;20.80;2.20;;;;;;4996252;28;20567;-62
2023/03/09 11:00:51;;;;;;;4.77;0.60;;;21.50;1.70;;;;;;5001891;28;20473;-61
2023/03/09 11:03:21;;;;;;;4.77;0.80;;;21.40;1.10;;;;;;5000054;28;20459;-61
2023/03/09 11:05:48;;;;;;;8.17;1.20;;;20.60;1.70;;;;;;4999703;28;20499;-62
2023/03/09 11:08:26;;;;;;;3.87;0.70;;;20.00;2.90;;;;;;4999259;28;20460;-61
2023/03/09 11:11:03;;;;;;;6.20;1.07;;;19.40;3.90;;;;;;5005091;28;20482;-62
2023/03/09 11:13:30;;;;;;;4.90;0.83;;;18.80;4.80;;;;;;5005862;28;20472;-64
2023/03/09 11:16:13;;;;;;;4.20;1.30;;;18.70;5.70;;;;;;4998469;28;20480;-61
2023/03/09 11:18:40;;;;;;;5.03;0.90;;;18.40;6.30;;;;;;4994655;28;22632;-64
2023/03/09 11:21:07;;;;;;;6.70;1.33;;;18.80;7.00;;;;;;5002411;28;21009;-63
2023/03/09 11:23:39;;;;;;;4.67;1.47;;;19.30;6.40;;;;;;4995276;28;20458;-65
2023/03/09 11:26:13;;;;;;;5.67;1.30;;;19.50;5.50;;;;;;5003605;28;20486;-64
2023/03/09 11:28:48;;;;;;;4.57;0.87;;;19.50;5.00;;;;;;5001060;28;20463;-64
2023/03/09 11:31:17;;;;;;;3.83;0.60;;;19.60;4.90;;;;;;4995335;28;20479;-61
2023/03/09 11:33:46;;;;;;;4.73;0.90;;;19.70;4.10;;;;;;5000539;28;20460;-62
2023/03/09 11:36:17;;;;;;;6.63;1.20;;;19.80;3.20;;;;;;4998188;28;20479;-64
2023/03/09 11:38:47;;;;;;;4.93;0.90;;;19.70;4.00;;;;;;4994662;28;20464;-65
2023/03/09 11:41:20;;;;;;;4.30;0.83;;;19.60;4.60;;;;;;5001984;28;20460;-65
2023/03/09 11:43:52;;;;;;;3.70;0.80;;;19.60;3.80;;;;;;4994276;28;20470;-64
2023/03/09 11:46:20;;;;;;;5.00;1.07;;;19.70;3.70;;;;;;4997633;28;20496;-64
2023/03/09 11:48:50;;;;;;;4.70;0.87;;;19.60;2.80;;;;;;5000835;28;20471;-65
2023/03/09 11:51:22;;;;;;;6.33;1.23;;;19.30;2.90;;;;;;4994446;28;20837;-64
2023/03/09 11:53:56;;;;;;;5.37;0.90;;;19.00;4.00;;;;;;5002424;28;21241;-65
2023/03/09 11:56:28;;;;;;;4.30;0.90;;;18.80;4.10;;;;;;5002405;28;20510;-65
2023/03/09 11:59:00;;;;;;;7.13;1.00;;;18.50;5.00;;;;;;4994900;28;20464;-64
2023/03/09 12:01:32;;;;;;;7.53;1.67;;;18.50;5.70;;;;;;5004540;28;20479;-64
2023/03/09 12:04:01;;;;;;;5.37;1.10;;;18.40;5.50;;;;;;5005951;28;20490;-64
2023/03/09 12:06:42;;;;;;;3.70;0.70;;;18.20;4.40;;;;;;5009394;28;20491;-64
2023/03/09 12:09:23;;;;;;;5.07;0.73;;;17.80;5.50;;;;;;5004496;28;20462;-65
2023/03/09 12:11:53;;;;;;;5.50;1.27;;;17.60;5.80;;;;;;4997931;28;20466;-65
2023/03/09 12:14:23;;;;;;;4.10;1.10;;;17.40;6.20;;;;;;5012328;28;20459;-65
2023/03/09 12:16:53;;;;;;;6.23;1.27;;;17.20;7.00;;;;;;5008693;28;20472;-64
2023/03/09 12:19:22;;;;;;;6.53;2.03;;;17.00;7.00;;;;;;5004728;28;20972;-64
2023/03/09 12:21:59;;;;;;;5.77;1.60;;;16.80;7.70;;;;;;5000808;28;20460;-64
2023/03/09 12:24:38;;;;;;;7.47;1.27;;;16.60;8.00;;;;;;5009082;28;20577;-65
2023/03/09 12:27:17;;;;;;;4.70;1.47;;;16.60;8.00;;;;;;4999705;28;20456;-63
2023/03/09 12:29:47;;;;;;;6.10;1.10;;;16.50;7.80;;;;;;5003273;28;20464;-65
2023/03/09 12:32:40;;;;;;;6.10;1.20;;;16.30;8.00;;;;;;5007324;28;20472;-64
2023/03/09 12:35:48;;;;;;;6.50;1.23;;;16.20;8.90;;;;;;5008849;28;20557;-63
2023/03/09 12:38:22;;;;;;;5.30;1.10;;;16.20;9.40;;;;;;5006848;28;20460;-64
2023/03/09 12:40:51;;;;;;;4.37;0.97;;;16.10;9.60;;;;;;5002993;28;20471;-63
2023/03/09 12:43:49;;;;;;;6.17;1.20;;;16.10;10.20;;;;;;5010507;28;20468;-64
2023/03/09 12:46:52;;;;;;;7.40;1.07;;;16.10;9.10;;;;;;5000165;28;20538;-63
2023/03/09 12:49:21;;;;;;;5.77;1.10;;;16.10;9.40;;;;;;4999986;28;20460;-66
2023/03/09 12:52:18;;;;;;;4.77;1.10;;;16.20;9.30;;;;;;4999841;28;20478;-65
2023/03/09 12:54:53;;;;;;;6.00;1.33;;;16.20;9.50;;;;;;5011150;28;20512;-64
2023/03/09 12:57:22;;;;;;;4.63;0.97;;;16.20;9.50;;;;;;5007819;28;21042;-64
2023/03/09 12:59:49;;;;;;;4.20;1.13;;;16.20;9.70;;;;;;5012538;28;20467;-63
2023/03/09 13:02:26;;;;;;;8.53;0.93;;;16.10;9.80;;;;;;5008806;28;20479;-63
2023/03/09 13:05:12;;;;;;;6.03;1.37;;;16.10;10.10;;;;;;5023014;28;20482;-65
2023/03/09 13:07:41;;;;;;;4.83;1.00;;;16.10;10.60;;;;;;5016050;28;20464;-65
2023/03/09 13:10:22;;;;;;;4.87;0.90;;;16.00;9.80;;;;;;5022130;28;20733;-64